Solo, Missouri
Current Conditions -  °F | °C
As of 4:53 PM on Wednesday 22 Oct 2014 (Local Time) from KUNO Reporting Station
Clear Clear  
Wind Chill: 65°   Ceiling: Unl
Heat Index: 65°   Visibility: 10mi
Dew Point: 44°   Wind: 8mph
Humidity: 47%   Direction: 110°ESE
Pressure: 30.19"   Gusts: NA
Location:  37.24°N, 91.95°W
Report Text: KUNO 222153Z AUTO 11007KT 10SM CLR 18/07 A3019 RMK AO2 SLP221 T01830067
Loading
Personal Weather Stations






























Interactive Weather Map
Tropical Storm Tracking
New forecast layout! Learn more

10-Day Weather Forecast

Advertisements
Track Severe Weather on mobile